sensor_id;sensor_type;location;lat;lon;timestamp;temperature;humidity
15044;DHT22;7619;48.562;8.910;2022-10-30T00:01:18;11.80;99.90
15044;DHT22;7619;48.562;8.910;2022-10-30T00:03:47;11.70;99.90
15044;DHT22;7619;48.562;8.910;2022-10-30T00:06:16;11.70;99.90
15044;DHT22;7619;48.562;8.910;2022-10-30T00:08:45;11.70;99.90
15044;DHT22;7619;48.562;8.910;2022-10-30T00:11:14;11.70;99.90
15044;DHT22;7619;48.562;8.910;2022-10-30T00:13:43;11.60;99.90
15044;DHT22;7619;48.562;8.910;2022-10-30T00:16:12;11.60;99.90
15044;DHT22;7619;48.562;8.910;2022-10-30T00:18:41;11.60;99.90
15044;DHT22;7619;48.562;8.910;2022-10-30T00:21:12;11.60;99.90
15044;DHT22;7619;48.562;8.910;2022-10-30T00:23:45;11.60;99.90
15044;DHT22;7619;48.562;8.910;2022-10-30T00:26:16;11.60;99.90
15044;DHT22;7619;48.562;8.910;2022-10-30T00:28:48;11.60;99.90
15044;DHT22;7619;48.562;8.910;2022-10-30T00:31:17;11.50;99.90
15044;DHT22;7619;48.562;8.910;2022-10-30T00:33:49;11.50;99.90
15044;DHT22;7619;48.562;8.910;2022-10-30T00:36:19;11.50;99.90
15044;DHT22;7619;48.562;8.910;2022-10-30T00:38:49;11.50;99.90
15044;DHT22;7619;48.562;8.910;2022-10-30T00:41:19;11.60;99.90
15044;DHT22;7619;48.562;8.910;2022-10-30T00:43:49;11.60;99.90
15044;DHT22;7619;48.562;8.910;2022-10-30T00:46:23;11.60;99.90
15044;DHT22;7619;48.562;8.910;2022-10-30T00:48:54;11.50;99.90
15044;DHT22;7619;48.562;8.910;2022-10-30T00:51:25;11.50;99.90
15044;DHT22;7619;48.562;8.910;2022-10-30T00:53:56;11.50;99.90
15044;DHT22;7619;48.562;8.910;2022-10-30T00:56:26;11.50;99.90
15044;DHT22;7619;48.562;8.910;2022-10-30T00:58:57;11.50;99.90
15044;DHT22;7619;48.562;8.910;2022-10-30T01:01:28;11.40;99.90
15044;DHT22;7619;48.562;8.910;2022-10-30T01:04:00;11.30;99.90
15044;DHT22;7619;48.562;8.910;2022-10-30T01:06:31;11.30;99.90
15044;DHT22;7619;48.562;8.910;2022-10-30T01:09:02;11.30;99.90
15044;DHT22;7619;48.562;8.910;2022-10-30T01:11:31;11.30;99.90
15044;DHT22;7619;48.562;8.910;2022-10-30T01:14:03;11.30;99.90
15044;DHT22;7619;48.562;8.910;2022-10-30T01:16:40;11.30;99.90
15044;DHT22;7619;48.562;8.910;2022-10-30T01:24:44;11.20;99.90
15044;DHT22;7619;48.562;8.910;2022-10-30T01:27:25;11.10;99.90
15044;DHT22;7619;48.562;8.910;2022-10-30T01:29:59;11.00;99.90
15044;DHT22;7619;48.562;8.910;2022-10-30T01:32:40;10.90;99.90
15044;DHT22;7619;48.562;8.910;2022-10-30T01:37:53;10.80;99.90
15044;DHT22;7619;48.562;8.910;2022-10-30T01:40:23;10.80;99.90
15044;DHT22;7619;48.562;8.910;2022-10-30T01:42:54;10.80;99.90
15044;DHT22;7619;48.562;8.910;2022-10-30T01:45:36;10.90;99.90
15044;DHT22;7619;48.562;8.910;2022-10-30T01:48:29;11.00;99.90
15044;DHT22;7619;48.562;8.910;2022-10-30T01:51:02;10.90;99.90
15044;DHT22;7619;48.562;8.910;2022-10-30T01:53:41;11.00;99.90
15044;DHT22;7619;48.562;8.910;2022-10-30T01:56:16;11.00;99.90
15044;DHT22;7619;48.562;8.910;2022-10-30T01:58:49;10.90;99.90
15044;DHT22;7619;48.562;8.910;2022-10-30T02:01:18;10.90;99.90
15044;DHT22;7619;48.562;8.910;2022-10-30T02:03:49;11.00;99.90
15044;DHT22;7619;48.562;8.910;2022-10-30T02:06:19;11.00;99.90
15044;DHT22;7619;48.562;8.910;2022-10-30T02:08:48;11.00;99.90
15044;DHT22;7619;48.562;8.910;2022-10-30T02:11:17;11.00;99.90
15044;DHT22;7619;48.562;8.910;2022-10-30T02:13:45;11.00;99.90
15044;DHT22;7619;48.562;8.910;2022-10-30T02:16:14;11.00;99.90
15044;DHT22;7619;48.562;8.910;2022-10-30T02:18:43;11.10;99.90
15044;DHT22;7619;48.562;8.910;2022-10-30T02:21:12;11.10;99.90
15044;DHT22;7619;48.562;8.910;2022-10-30T02:23:41;11.10;99.90
15044;DHT22;7619;48.562;8.910;2022-10-30T02:26:10;11.10;99.90
15044;DHT22;7619;48.562;8.910;2022-10-30T02:28:38;11.10;99.90
15044;DHT22;7619;48.562;8.910;2022-10-30T02:31:07;11.00;99.90
15044;DHT22;7619;48.562;8.910;2022-10-30T02:33:36;11.10;99.90
15044;DHT22;7619;48.562;8.910;2022-10-30T02:36:06;11.10;99.90
15044;DHT22;7619;48.562;8.910;2022-10-30T02:38:35;11.00;99.90
15044;DHT22;7619;48.562;8.910;2022-10-30T02:41:04;11.00;99.90
15044;DHT22;7619;48.562;8.910;2022-10-30T02:43:33;11.00;99.90
15044;DHT22;7619;48.562;8.910;2022-10-30T02:46:02;10.90;99.90
15044;DHT22;7619;48.562;8.910;2022-10-30T02:51:08;11.00;99.90
15044;DHT22;7619;48.562;8.910;2022-10-30T02:53:36;11.00;99.90
15044;DHT22;7619;48.562;8.910;2022-10-30T02:56:08;11.00;99.90
15044;DHT22;7619;48.562;8.910;2022-10-30T02:58:37;10.90;99.90
15044;DHT22;7619;48.562;8.910;2022-10-30T03:01:08;10.80;99.90
15044;DHT22;7619;48.562;8.910;2022-10-30T03:03:38;10.80;99.90
15044;DHT22;7619;48.562;8.910;2022-10-30T03:06:09;10.80;99.90
15044;DHT22;7619;48.562;8.910;2022-10-30T03:08:38;10.90;99.90
15044;DHT22;7619;48.562;8.910;2022-10-30T03:11:08;10.90;99.90
15044;DHT22;7619;48.562;8.910;2022-10-30T03:13:38;10.90;99.90
15044;DHT22;7619;48.562;8.910;2022-10-30T03:16:09;10.90;99.90
15044;DHT22;7619;48.562;8.910;2022-10-30T03:18:39;10.90;99.90
15044;DHT22;7619;48.562;8.910;2022-10-30T03:21:10;10.80;99.90
15044;DHT22;7619;48.562;8.910;2022-10-30T03:23:39;10.80;99.90
15044;DHT22;7619;48.562;8.910;2022-10-30T03:26:08;10.70;99.90
15044;DHT22;7619;48.562;8.910;2022-10-30T03:28:37;10.70;99.90
15044;DHT22;7619;48.562;8.910;2022-10-30T03:31:08;10.60;99.90
15044;DHT22;7619;48.562;8.910;2022-10-30T03:33:37;10.60;99.90
15044;DHT22;7619;48.562;8.910;2022-10-30T03:36:08;10.50;99.90
15044;DHT22;7619;48.562;8.910;2022-10-30T03:38:37;10.60;99.90
15044;DHT22;7619;48.562;8.910;2022-10-30T03:41:07;10.50;99.90
15044;DHT22;7619;48.562;8.910;2022-10-30T03:43:37;10.40;99.90
15044;DHT22;7619;48.562;8.910;2022-10-30T03:46:06;10.40;99.90
15044;DHT22;7619;48.562;8.910;2022-10-30T03:48:36;10.40;99.90
15044;DHT22;7619;48.562;8.910;2022-10-30T03:51:05;10.50;99.90
15044;DHT22;7619;48.562;8.910;2022-10-30T03:53:34;10.40;99.90
15044;DHT22;7619;48.562;8.910;2022-10-30T03:56:05;10.20;99.90
15044;DHT22;7619;48.562;8.910;2022-10-30T03:58:34;10.10;99.90
15044;DHT22;7619;48.562;8.910;2022-10-30T04:01:04;10.20;99.90
15044;DHT22;7619;48.562;8.910;2022-10-30T04:03:34;10.10;99.90
15044;DHT22;7619;48.562;8.910;2022-10-30T04:06:03;10.10;99.90
15044;DHT22;7619;48.562;8.910;2022-10-30T04:11:10;10.00;99.90
15044;DHT22;7619;48.562;8.910;2022-10-30T04:13:39;10.00;99.90
15044;DHT22;7619;48.562;8.910;2022-10-30T04:16:08;10.10;99.90
15044;DHT22;7619;48.562;8.910;2022-10-30T04:18:37;10.20;99.90
15044;DHT22;7619;48.562;8.910;2022-10-30T04:21:06;10.30;99.90
15044;DHT22;7619;48.562;8.910;2022-10-30T04:23:35;10.20;99.90
15044;DHT22;7619;48.562;8.910;2022-10-30T04:26:04;10.20;99.90
15044;DHT22;7619;48.562;8.910;2022-10-30T04:28:32;10.20;99.90
15044;DHT22;7619;48.562;8.910;2022-10-30T04:31:01;10.10;99.90
15044;DHT22;7619;48.562;8.910;2022-10-30T04:33:30;10.10;99.90
15044;DHT22;7619;48.562;8.910;2022-10-30T04:35:59;10.10;99.90
15044;DHT22;7619;48.562;8.910;2022-10-30T04:38:28;10.00;99.90
15044;DHT22;7619;48.562;8.910;2022-10-30T04:40:57;9.90;99.90
15044;DHT22;7619;48.562;8.910;2022-10-30T04:43:26;9.80;99.90
15044;DHT22;7619;48.562;8.910;2022-10-30T04:45:55;9.80;99.90
15044;DHT22;7619;48.562;8.910;2022-10-30T04:48:23;9.70;99.90
15044;DHT22;7619;48.562;8.910;2022-10-30T04:50:53;9.80;99.90
15044;DHT22;7619;48.562;8.910;2022-10-30T04:53:24;9.80;99.90
15044;DHT22;7619;48.562;8.910;2022-10-30T04:55:54;9.70;99.90
15044;DHT22;7619;48.562;8.910;2022-10-30T04:58:23;9.70;99.90
15044;DHT22;7619;48.562;8.910;2022-10-30T05:00:52;9.60;99.90
15044;DHT22;7619;48.562;8.910;2022-10-30T05:03:22;9.60;99.90
15044;DHT22;7619;48.562;8.910;2022-10-30T05:05:57;9.60;99.90
15044;DHT22;7619;48.562;8.910;2022-10-30T05:08:27;9.60;99.90
15044;DHT22;7619;48.562;8.910;2022-10-30T05:10:55;9.50;99.90
15044;DHT22;7619;48.562;8.910;2022-10-30T05:13:24;9.50;99.90
15044;DHT22;7619;48.562;8.910;2022-10-30T05:15:54;9.50;99.90
15044;DHT22;7619;48.562;8.910;2022-10-30T05:18:23;9.50;99.90
15044;DHT22;7619;48.562;8.910;2022-10-30T05:20:52;9.40;99.90
15044;DHT22;7619;48.562;8.910;2022-10-30T05:23:21;9.40;99.90
15044;DHT22;7619;48.562;8.910;2022-10-30T05:25:49;9.40;99.90
15044;DHT22;7619;48.562;8.910;2022-10-30T05:28:18;9.40;99.90
15044;DHT22;7619;48.562;8.910;2022-10-30T05:30:50;9.40;99.90
15044;DHT22;7619;48.562;8.910;2022-10-30T05:33:17;9.40;99.90
15044;DHT22;7619;48.562;8.910;2022-10-30T05:35:47;9.40;99.90
15044;DHT22;7619;48.562;8.910;2022-10-30T05:38:15;9.40;99.90
15044;DHT22;7619;48.562;8.910;2022-10-30T05:40:45;9.40;99.90
15044;DHT22;7619;48.562;8.910;2022-10-30T05:43:14;9.40;99.90
15044;DHT22;7619;48.562;8.910;2022-10-30T05:45:43;9.30;99.90
15044;DHT22;7619;48.562;8.910;2022-10-30T05:48:12;9.30;99.90
15044;DHT22;7619;48.562;8.910;2022-10-30T05:50:41;9.30;99.90
15044;DHT22;7619;48.562;8.910;2022-10-30T05:53:10;9.30;99.90
15044;DHT22;7619;48.562;8.910;2022-10-30T05:55:39;9.30;99.90
15044;DHT22;7619;48.562;8.910;2022-10-30T05:58:09;9.30;99.90
15044;DHT22;7619;48.562;8.910;2022-10-30T06:00:38;9.30;99.90
15044;DHT22;7619;48.562;8.910;2022-10-30T06:03:11;9.30;99.90
15044;DHT22;7619;48.562;8.910;2022-10-30T06:05:42;9.30;99.90
15044;DHT22;7619;48.562;8.910;2022-10-30T06:08:10;9.20;99.90
15044;DHT22;7619;48.562;8.910;2022-10-30T06:10:39;9.10;99.90
15044;DHT22;7619;48.562;8.910;2022-10-30T06:13:10;9.10;99.90
15044;DHT22;7619;48.562;8.910;2022-10-30T06:15:39;9.00;99.90
15044;DHT22;7619;48.562;8.910;2022-10-30T06:18:07;9.10;99.90
15044;DHT22;7619;48.562;8.910;2022-10-30T06:20:36;9.10;99.90
15044;DHT22;7619;48.562;8.910;2022-10-30T06:23:06;9.10;99.90
15044;DHT22;7619;48.562;8.910;2022-10-30T06:25:36;9.10;99.90
15044;DHT22;7619;48.562;8.910;2022-10-30T06:28:05;9.10;99.90
15044;DHT22;7619;48.562;8.910;2022-10-30T06:30:34;9.20;99.90
15044;DHT22;7619;48.562;8.910;2022-10-30T06:33:04;9.30;99.90
15044;DHT22;7619;48.562;8.910;2022-10-30T06:35:33;9.40;99.90
15044;DHT22;7619;48.562;8.910;2022-10-30T06:38:02;9.60;99.90
15044;DHT22;7619;48.562;8.910;2022-10-30T06:40:31;9.50;99.90
15044;DHT22;7619;48.562;8.910;2022-10-30T06:43:00;9.60;99.90
15044;DHT22;7619;48.562;8.910;2022-10-30T06:45:29;9.60;99.90
15044;DHT22;7619;48.562;8.910;2022-10-30T06:47:59;9.70;99.90
15044;DHT22;7619;48.562;8.910;2022-10-30T06:50:30;9.90;99.90
15044;DHT22;7619;48.562;8.910;2022-10-30T06:52:59;10.00;99.90
15044;DHT22;7619;48.562;8.910;2022-10-30T06:55:27;10.10;99.90
15044;DHT22;7619;48.562;8.910;2022-10-30T06:57:57;10.10;99.90
15044;DHT22;7619;48.562;8.910;2022-10-30T07:00:26;10.00;99.90
15044;DHT22;7619;48.562;8.910;2022-10-30T07:02:59;10.10;99.90
15044;DHT22;7619;48.562;8.910;2022-10-30T07:05:28;10.20;99.90
15044;DHT22;7619;48.562;8.910;2022-10-30T07:07:58;10.10;99.90
15044;DHT22;7619;48.562;8.910;2022-10-30T07:10:26;10.20;99.90
15044;DHT22;7619;48.562;8.910;2022-10-30T07:12:56;10.20;99.90
15044;DHT22;7619;48.562;8.910;2022-10-30T07:15:25;10.30;99.90
15044;DHT22;7619;48.562;8.910;2022-10-30T07:17:56;10.50;99.90
15044;DHT22;7619;48.562;8.910;2022-10-30T07:20:26;10.50;99.90
15044;DHT22;7619;48.562;8.910;2022-10-30T07:22:55;10.60;99.90
15044;DHT22;7619;48.562;8.910;2022-10-30T07:25:23;10.70;99.90
15044;DHT22;7619;48.562;8.910;2022-10-30T07:30:30;10.70;99.90
15044;DHT22;7619;48.562;8.910;2022-10-30T07:33:00;10.80;99.90
15044;DHT22;7619;48.562;8.910;2022-10-30T07:35:30;10.90;99.90
15044;DHT22;7619;48.562;8.910;2022-10-30T07:38:03;11.00;99.90
15044;DHT22;7619;48.562;8.910;2022-10-30T07:40:32;10.90;99.90
15044;DHT22;7619;48.562;8.910;2022-10-30T07:43:02;11.00;99.90
15044;DHT22;7619;48.562;8.910;2022-10-30T07:45:31;11.00;99.90
15044;DHT22;7619;48.562;8.910;2022-10-30T07:48:01;11.00;99.90
15044;DHT22;7619;48.562;8.910;2022-10-30T07:50:30;11.10;99.90
15044;DHT22;7619;48.562;8.910;2022-10-30T07:52:58;11.10;99.90
15044;DHT22;7619;48.562;8.910;2022-10-30T07:55:27;11.10;99.90
15044;DHT22;7619;48.562;8.910;2022-10-30T07:57:56;11.20;99.90
15044;DHT22;7619;48.562;8.910;2022-10-30T08:00:25;11.20;99.90
15044;DHT22;7619;48.562;8.910;2022-10-30T08:02:57;11.20;99.90
15044;DHT22;7619;48.562;8.910;2022-10-30T08:05:25;11.30;99.90
15044;DHT22;7619;48.562;8.910;2022-10-30T08:07:54;11.40;99.90
15044;DHT22;7619;48.562;8.910;2022-10-30T08:13:01;11.50;99.90
15044;DHT22;7619;48.562;8.910;2022-10-30T08:15:30;11.60;99.90
15044;DHT22;7619;48.562;8.910;2022-10-30T08:17:59;11.80;99.90
15044;DHT22;7619;48.562;8.910;2022-10-30T08:23:07;12.20;99.90
15044;DHT22;7619;48.562;8.910;2022-10-30T08:25:36;12.30;99.90
15044;DHT22;7619;48.562;8.910;2022-10-30T08:28:06;12.40;99.90
15044;DHT22;7619;48.562;8.910;2022-10-30T08:33:12;12.60;99.90
15044;DHT22;7619;48.562;8.910;2022-10-30T08:35:47;12.70;99.90
15044;DHT22;7619;48.562;8.910;2022-10-30T08:38:17;12.70;99.90
15044;DHT22;7619;48.562;8.910;2022-10-30T08:40:46;12.80;99.90
15044;DHT22;7619;48.562;8.910;2022-10-30T08:43:15;13.00;99.90
15044;DHT22;7619;48.562;8.910;2022-10-30T08:48:21;13.10;99.90
15044;DHT22;7619;48.562;8.910;2022-10-30T08:50:50;13.20;99.90
15044;DHT22;7619;48.562;8.910;2022-10-30T08:55:57;13.40;99.90
15044;DHT22;7619;48.562;8.910;2022-10-30T09:01:04;13.90;99.90
15044;DHT22;7619;48.562;8.910;2022-10-30T09:03:34;14.50;99.90
15044;DHT22;7619;48.562;8.910;2022-10-30T09:06:03;14.60;99.90
15044;DHT22;7619;48.562;8.910;2022-10-30T09:08:32;14.60;99.90
15044;DHT22;7619;48.562;8.910;2022-10-30T09:11:01;14.70;99.90
15044;DHT22;7619;48.562;8.910;2022-10-30T09:13:30;14.70;99.90
15044;DHT22;7619;48.562;8.910;2022-10-30T09:16:00;14.70;99.90
15044;DHT22;7619;48.562;8.910;2022-10-30T09:23:43;15.00;99.90
15044;DHT22;7619;48.562;8.910;2022-10-30T09:26:12;15.10;99.90
15044;DHT22;7619;48.562;8.910;2022-10-30T09:28:41;15.10;99.90
15044;DHT22;7619;48.562;8.910;2022-10-30T09:31:12;15.20;99.90
15044;DHT22;7619;48.562;8.910;2022-10-30T09:36:18;15.40;99.90
15044;DHT22;7619;48.562;8.910;2022-10-30T09:41:37;15.60;99.90
15044;DHT22;7619;48.562;8.910;2022-10-30T09:46:53;15.80;99.90
15044;DHT22;7619;48.562;8.910;2022-10-30T09:52:21;16.20;99.90
15044;DHT22;7619;48.562;8.910;2022-10-30T09:55:00;16.20;99.90
15044;DHT22;7619;48.562;8.910;2022-10-30T09:57:34;16.30;99.90
15044;DHT22;7619;48.562;8.910;2022-10-30T10:00:08;16.50;1.00
15044;DHT22;7619;48.562;8.910;2022-10-30T10:02:43;16.70;99.90
15044;DHT22;7619;48.562;8.910;2022-10-30T10:05:18;16.90;94.20
15044;DHT22;7619;48.562;8.910;2022-10-30T10:07:49;17.00;30.00
15044;DHT22;7619;48.562;8.910;2022-10-30T10:10:22;17.20;1.00
15044;DHT22;7619;48.562;8.910;2022-10-30T10:13:11;17.40;99.90
15044;DHT22;7619;48.562;8.910;2022-10-30T10:18:22;17.70;99.90
15044;DHT22;7619;48.562;8.910;2022-10-30T10:20:52;17.90;1.00
15044;DHT22;7619;48.562;8.910;2022-10-30T10:26:15;18.10;1.00
15044;DHT22;7619;48.562;8.910;2022-10-30T10:28:48;18.40;1.00
15044;DHT22;7619;48.562;8.910;2022-10-30T10:31:26;18.70;99.90
15044;DHT22;7619;48.562;8.910;2022-10-30T10:34:01;18.60;1.00
15044;DHT22;7619;48.562;8.910;2022-10-30T10:39:22;18.80;99.90
15044;DHT22;7619;48.562;8.910;2022-10-30T10:42:00;18.90;1.00
15044;DHT22;7619;48.562;8.910;2022-10-30T10:44:34;19.00;1.00
15044;DHT22;7619;48.562;8.910;2022-10-30T10:47:13;19.20;1.00
15044;DHT22;7619;48.562;8.910;2022-10-30T10:49:53;19.40;1.00
15044;DHT22;7619;48.562;8.910;2022-10-30T10:55:04;19.60;99.90
15044;DHT22;7619;48.562;8.910;2022-10-30T10:57:35;19.70;99.90
15044;DHT22;7619;48.562;8.910;2022-10-30T11:00:12;19.90;1.00
15044;DHT22;7619;48.562;8.910;2022-10-30T11:02:44;20.00;74.60
15044;DHT22;7619;48.562;8.910;2022-10-30T11:05:17;20.20;1.00
15044;DHT22;7619;48.562;8.910;2022-10-30T11:07:48;20.30;1.00
15044;DHT22;7619;48.562;8.910;2022-10-30T11:10:18;20.40;99.90
15044;DHT22;7619;48.562;8.910;2022-10-30T11:12:49;20.50;99.90
15044;DHT22;7619;48.562;8.910;2022-10-30T11:15:33;20.60;99.90
15044;DHT22;7619;48.562;8.910;2022-10-30T11:18:07;20.70;99.90
15044;DHT22;7619;48.562;8.910;2022-10-30T11:20:46;20.80;1.00
15044;DHT22;7619;48.562;8.910;2022-10-30T11:23:37;21.00;1.00
15044;DHT22;7619;48.562;8.910;2022-10-30T11:26:34;21.10;99.90
15044;DHT22;7619;48.562;8.910;2022-10-30T11:29:10;21.20;99.90
15044;DHT22;7619;48.562;8.910;2022-10-30T11:31:41;21.40;1.00
15044;DHT22;7619;48.562;8.910;2022-10-30T11:34:34;21.60;98.10
15044;DHT22;7619;48.562;8.910;2022-10-30T11:37:04;21.70;1.00
15044;DHT22;7619;48.562;8.910;2022-10-30T11:39:34;21.90;1.00
15044;DHT22;7619;48.562;8.910;2022-10-30T11:42:06;22.00;99.90
15044;DHT22;7619;48.562;8.910;2022-10-30T11:44:38;22.30;99.90
15044;DHT22;7619;48.562;8.910;2022-10-30T11:47:09;22.70;1.00
15044;DHT22;7619;48.562;8.910;2022-10-30T11:49:43;22.80;1.00
15044;DHT22;7619;48.562;8.910;2022-10-30T11:52:14;23.10;1.00
15044;DHT22;7619;48.562;8.910;2022-10-30T11:54:47;23.20;1.00
15044;DHT22;7619;48.562;8.910;2022-10-30T11:57:22;23.60;1.00
15044;DHT22;7619;48.562;8.910;2022-10-30T11:59:54;23.90;99.90
15044;DHT22;7619;48.562;8.910;2022-10-30T12:02:26;24.10;99.90
15044;DHT22;7619;48.562;8.910;2022-10-30T12:04:59;24.30;99.90
15044;DHT22;7619;48.562;8.910;2022-10-30T12:07:30;24.10;99.90
15044;DHT22;7619;48.562;8.910;2022-10-30T12:09:59;24.20;99.90
15044;DHT22;7619;48.562;8.910;2022-10-30T12:15:17;24.40;99.90
15044;DHT22;7619;48.562;8.910;2022-10-30T12:17:51;24.50;99.90
15044;DHT22;7619;48.562;8.910;2022-10-30T12:20:20;24.30;99.90
15044;DHT22;7619;48.562;8.910;2022-10-30T12:22:50;24.20;99.90
15044;DHT22;7619;48.562;8.910;2022-10-30T12:25:22;24.20;99.90
15044;DHT22;7619;48.562;8.910;2022-10-30T12:27:57;23.90;99.90
15044;DHT22;7619;48.562;8.910;2022-10-30T12:30:29;23.60;99.90
15044;DHT22;7619;48.562;8.910;2022-10-30T12:33:00;23.40;99.90
15044;DHT22;7619;48.562;8.910;2022-10-30T12:35:39;23.30;97.20
15044;DHT22;7619;48.562;8.910;2022-10-30T12:38:14;23.20;87.90
15044;DHT22;7619;48.562;8.910;2022-10-30T12:43:25;23.30;96.00
15044;DHT22;7619;48.562;8.910;2022-10-30T12:45:58;23.40;99.90
15044;DHT22;7619;48.562;8.910;2022-10-30T12:48:29;23.60;99.90
15044;DHT22;7619;48.562;8.910;2022-10-30T12:51:06;23.50;99.90
15044;DHT22;7619;48.562;8.910;2022-10-30T12:53:39;23.70;99.90
15044;DHT22;7619;48.562;8.910;2022-10-30T12:56:11;23.80;99.90
15044;DHT22;7619;48.562;8.910;2022-10-30T12:58:43;23.90;99.90
15044;DHT22;7619;48.562;8.910;2022-10-30T13:03:56;24.00;99.90
15044;DHT22;7619;48.562;8.910;2022-10-30T13:06:29;24.10;99.90
15044;DHT22;7619;48.562;8.910;2022-10-30T13:09:07;24.30;99.90
15044;DHT22;7619;48.562;8.910;2022-10-30T13:14:32;24.50;99.90
15044;DHT22;7619;48.562;8.910;2022-10-30T13:19:28;24.70;99.90
15044;DHT22;7619;48.562;8.910;2022-10-30T13:22:01;24.90;99.90
15044;DHT22;7619;48.562;8.910;2022-10-30T13:24:38;24.80;99.90
15044;DHT22;7619;48.562;8.910;2022-10-30T13:27:09;24.80;99.90
15044;DHT22;7619;48.562;8.910;2022-10-30T13:29:40;24.80;99.90
15044;DHT22;7619;48.562;8.910;2022-10-30T13:32:27;24.80;99.90
15044;DHT22;7619;48.562;8.910;2022-10-30T13:34:59;24.80;96.10
15044;DHT22;7619;48.562;8.910;2022-10-30T13:37:33;24.60;82.90
15044;DHT22;7619;48.562;8.910;2022-10-30T13:40:08;24.40;99.90
15044;DHT22;7619;48.562;8.910;2022-10-30T13:42:45;24.40;92.10
15044;DHT22;7619;48.562;8.910;2022-10-30T13:48:41;24.40;45.20
15044;DHT22;7619;48.562;8.910;2022-10-30T13:51:27;24.20;97.70
15044;DHT22;7619;48.562;8.910;2022-10-30T13:54:00;24.10;74.90
15044;DHT22;7619;48.562;8.910;2022-10-30T13:56:31;24.00;76.60
15044;DHT22;7619;48.562;8.910;2022-10-30T13:59:07;23.80;17.80
15044;DHT22;7619;48.562;8.910;2022-10-30T14:01:38;23.70;9.60
15044;DHT22;7619;48.562;8.910;2022-10-30T14:04:13;23.60;12.30
15044;DHT22;7619;48.562;8.910;2022-10-30T14:06:45;23.40;56.30
15044;DHT22;7619;48.562;8.910;2022-10-30T14:09:20;23.30;52.30
15044;DHT22;7619;48.562;8.910;2022-10-30T14:11:49;23.30;23.70
15044;DHT22;7619;48.562;8.910;2022-10-30T14:14:27;23.10;1.00
15044;DHT22;7619;48.562;8.910;2022-10-30T14:17:13;23.10;1.00
15044;DHT22;7619;48.562;8.910;2022-10-30T14:20:26;23.00;1.00
15044;DHT22;7619;48.562;8.910;2022-10-30T14:26:20;22.90;11.70
15044;DHT22;7619;48.562;8.910;2022-10-30T14:28:50;22.80;44.50
15044;DHT22;7619;48.562;8.910;2022-10-30T14:31:33;22.80;88.00
15044;DHT22;7619;48.562;8.910;2022-10-30T14:34:03;22.80;99.90
15044;DHT22;7619;48.562;8.910;2022-10-30T14:39:30;22.70;99.90
15044;DHT22;7619;48.562;8.910;2022-10-30T14:42:05;22.60;99.90
15044;DHT22;7619;48.562;8.910;2022-10-30T14:47:37;22.50;99.90
15044;DHT22;7619;48.562;8.910;2022-10-30T14:50:16;22.40;99.90
15044;DHT22;7619;48.562;8.910;2022-10-30T14:52:51;22.40;99.90
15044;DHT22;7619;48.562;8.910;2022-10-30T14:55:29;22.30;99.90
15044;DHT22;7619;48.562;8.910;2022-10-30T14:58:21;22.20;99.90
15044;DHT22;7619;48.562;8.910;2022-10-30T15:03:49;22.00;99.90
15044;DHT22;7619;48.562;8.910;2022-10-30T15:06:23;22.00;99.90
15044;DHT22;7619;48.562;8.910;2022-10-30T15:09:07;21.90;99.90
15044;DHT22;7619;48.562;8.910;2022-10-30T15:12:16;21.80;99.90
15044;DHT22;7619;48.562;8.910;2022-10-30T15:14:47;21.70;99.90
15044;DHT22;7619;48.562;8.910;2022-10-30T15:17:25;21.60;1.00
15044;DHT22;7619;48.562;8.910;2022-10-30T15:19:54;21.60;1.00
15044;DHT22;7619;48.562;8.910;2022-10-30T15:22:25;21.50;1.00
15044;DHT22;7619;48.562;8.910;2022-10-30T15:24:56;21.40;1.00
15044;DHT22;7619;48.562;8.910;2022-10-30T15:27:27;21.30;1.00
15044;DHT22;7619;48.562;8.910;2022-10-30T15:32:40;21.10;1.00
15044;DHT22;7619;48.562;8.910;2022-10-30T15:35:13;21.00;53.40
15044;DHT22;7619;48.562;8.910;2022-10-30T15:38:00;21.00;1.00
15044;DHT22;7619;48.562;8.910;2022-10-30T15:40:30;20.90;1.00
15044;DHT22;7619;48.562;8.910;2022-10-30T15:43:03;20.80;57.80
15044;DHT22;7619;48.562;8.910;2022-10-30T15:45:34;20.60;99.90
15044;DHT22;7619;48.562;8.910;2022-10-30T15:48:06;20.40;1.00
15044;DHT22;7619;48.562;8.910;2022-10-30T15:50:40;20.30;99.90
15044;DHT22;7619;48.562;8.910;2022-10-30T15:53:16;20.10;1.00
15044;DHT22;7619;48.562;8.910;2022-10-30T15:55:46;19.80;1.00
15044;DHT22;7619;48.562;8.910;2022-10-30T15:58:19;19.70;1.00
15044;DHT22;7619;48.562;8.910;2022-10-30T16:00:56;19.60;99.90
15044;DHT22;7619;48.562;8.910;2022-10-30T16:03:25;19.40;99.90
15044;DHT22;7619;48.562;8.910;2022-10-30T16:06:05;19.10;99.90
15044;DHT22;7619;48.562;8.910;2022-10-30T16:11:20;18.80;99.90
15044;DHT22;7619;48.562;8.910;2022-10-30T16:13:50;18.70;99.90
15044;DHT22;7619;48.562;8.910;2022-10-30T16:16:23;18.60;99.90
15044;DHT22;7619;48.562;8.910;2022-10-30T16:18:53;18.50;99.90
15044;DHT22;7619;48.562;8.910;2022-10-30T16:24:04;18.20;99.90
15044;DHT22;7619;48.562;8.910;2022-10-30T16:26:34;18.10;99.90
15044;DHT22;7619;48.562;8.910;2022-10-30T16:29:15;17.90;99.90
15044;DHT22;7619;48.562;8.910;2022-10-30T16:31:48;17.90;99.90
15044;DHT22;7619;48.562;8.910;2022-10-30T16:34:21;17.90;99.90
15044;DHT22;7619;48.562;8.910;2022-10-30T16:36:52;17.80;99.90
15044;DHT22;7619;48.562;8.910;2022-10-30T16:39:21;17.80;99.90
15044;DHT22;7619;48.562;8.910;2022-10-30T16:41:51;17.50;99.90
15044;DHT22;7619;48.562;8.910;2022-10-30T16:44:27;17.30;99.90
15044;DHT22;7619;48.562;8.910;2022-10-30T16:46:58;17.10;99.90
15044;DHT22;7619;48.562;8.910;2022-10-30T16:49:29;17.10;99.90
15044;DHT22;7619;48.562;8.910;2022-10-30T16:54:38;17.00;99.90
15044;DHT22;7619;48.562;8.910;2022-10-30T16:57:12;16.80;99.90
15044;DHT22;7619;48.562;8.910;2022-10-30T16:59:45;16.60;99.90
15044;DHT22;7619;48.562;8.910;2022-10-30T17:04:54;16.40;99.90
15044;DHT22;7619;48.562;8.910;2022-10-30T17:10:27;16.10;99.90
15044;DHT22;7619;48.562;8.910;2022-10-30T17:12:40;16.00;99.90
15044;DHT22;7619;48.562;8.910;2022-10-30T17:15:13;16.10;99.90
15044;DHT22;7619;48.562;8.910;2022-10-30T17:17:44;15.90;99.90
15044;DHT22;7619;48.562;8.910;2022-10-30T17:20:24;15.90;99.90
15044;DHT22;7619;48.562;8.910;2022-10-30T17:25:43;15.70;99.90
15044;DHT22;7619;48.562;8.910;2022-10-30T17:34:16;15.40;99.90
15044;DHT22;7619;48.562;8.910;2022-10-30T17:36:47;15.50;99.90
15044;DHT22;7619;48.562;8.910;2022-10-30T17:41:56;16.20;99.90
15044;DHT22;7619;48.562;8.910;2022-10-30T17:44:25;15.90;99.90
15044;DHT22;7619;48.562;8.910;2022-10-30T17:49:33;15.40;99.90
15044;DHT22;7619;48.562;8.910;2022-10-30T17:52:02;15.20;99.90
15044;DHT22;7619;48.562;8.910;2022-10-30T17:54:31;15.00;99.90
15044;DHT22;7619;48.562;8.910;2022-10-30T17:59:39;14.60;99.90
15044;DHT22;7619;48.562;8.910;2022-10-30T18:02:12;14.50;99.90
15044;DHT22;7619;48.562;8.910;2022-10-30T18:04:42;14.40;99.90
15044;DHT22;7619;48.562;8.910;2022-10-30T18:07:12;14.30;99.90
15044;DHT22;7619;48.562;8.910;2022-10-30T18:12:19;14.10;99.90
15044;DHT22;7619;48.562;8.910;2022-10-30T18:14:48;14.00;99.90
15044;DHT22;7619;48.562;8.910;2022-10-30T18:19:54;14.00;99.90
15044;DHT22;7619;48.562;8.910;2022-10-30T18:22:23;14.00;99.90
15044;DHT22;7619;48.562;8.910;2022-10-30T18:24:52;13.90;99.90